sensor_id;sensor_type;location;lat;lon;timestamp;pressure;altitude;pressure_sealevel;temperature;humidity
61436;BME280;47304;47.456;19.160;2023-11-18T00:01:34;100138.66;;;4.19;65.93
61436;BME280;47304;47.456;19.160;2023-11-18T00:04:02;100142.84;;;4.21;65.97
61436;BME280;47304;47.456;19.160;2023-11-18T00:06:31;100142.84;;;4.21;65.95
61436;BME280;47304;47.456;19.160;2023-11-18T00:08:59;100138.99;;;4.19;65.85
61436;BME280;47304;47.456;19.160;2023-11-18T00:11:27;100139.31;;;4.18;65.95
61436;BME280;47304;47.456;19.160;2023-11-18T00:13:56;100142.42;;;4.18;66.10
61436;BME280;47304;47.456;19.160;2023-11-18T00:16:24;100144.83;;;4.16;66.24
61436;BME280;47304;47.456;19.160;2023-11-18T00:18:53;100151.58;;;4.15;66.16
61436;BME280;47304;47.456;19.160;2023-11-18T00:21:21;100145.79;;;4.13;66.14
61436;BME280;47304;47.456;19.160;2023-11-18T00:23:50;100149.21;;;4.11;66.09
61436;BME280;47304;47.456;19.160;2023-11-18T00:26:18;100147.63;;;4.10;66.09
61436;BME280;47304;47.456;19.160;2023-11-18T00:28:47;100156.05;;;4.07;66.18
61436;BME280;47304;47.456;19.160;2023-11-18T00:31:15;100152.89;;;4.04;66.34
61436;BME280;47304;47.456;19.160;2023-11-18T00:33:43;100152.31;;;4.02;66.31
61436;BME280;47304;47.456;19.160;2023-11-18T00:36:12;100148.60;;;3.99;66.47
61436;BME280;47304;47.456;19.160;2023-11-18T00:38:40;100150.11;;;3.97;66.49
61436;BME280;47304;47.456;19.160;2023-11-18T00:41:09;100151.79;;;3.94;66.75
61436;BME280;47304;47.456;19.160;2023-11-18T00:43:37;100153.64;;;3.92;66.70
61436;BME280;47304;47.456;19.160;2023-11-18T00:46:06;100159.09;;;3.88;66.75
61436;BME280;47304;47.456;19.160;2023-11-18T00:48:34;100163.72;;;3.86;66.93
61436;BME280;47304;47.456;19.160;2023-11-18T00:51:03;100162.44;;;3.83;67.00
61436;BME280;47304;47.456;19.160;2023-11-18T00:53:31;100159.60;;;3.80;67.15
61436;BME280;47304;47.456;19.160;2023-11-18T00:56:00;100165.46;;;3.79;67.21
61436;BME280;47304;47.456;19.160;2023-11-18T00:58:28;100165.40;;;3.76;67.28
61436;BME280;47304;47.456;19.160;2023-11-18T01:00:57;100165.50;;;3.73;67.28
61436;BME280;47304;47.456;19.160;2023-11-18T01:03:26;100167.05;;;3.72;67.45
61436;BME280;47304;47.456;19.160;2023-11-18T01:05:54;100175.55;;;3.72;67.54
61436;BME280;47304;47.456;19.160;2023-11-18T01:08:22;100180.57;;;3.72;67.51
61436;BME280;47304;47.456;19.160;2023-11-18T01:10:51;100181.60;;;3.72;67.53
61436;BME280;47304;47.456;19.160;2023-11-18T01:13:19;100186.63;;;3.73;67.59
61436;BME280;47304;47.456;19.160;2023-11-18T01:15:48;100187.16;;;3.73;67.55
61436;BME280;47304;47.456;19.160;2023-11-18T01:18:16;100185.05;;;3.71;67.54
61436;BME280;47304;47.456;19.160;2023-11-18T01:20:45;100185.23;;;3.72;67.50
61436;BME280;47304;47.456;19.160;2023-11-18T01:23:14;100184.35;;;3.71;67.48
61436;BME280;47304;47.456;19.160;2023-11-18T01:25:42;100185.20;;;3.71;67.54
61436;BME280;47304;47.456;19.160;2023-11-18T01:28:11;100186.95;;;3.72;67.41
61436;BME280;47304;47.456;19.160;2023-11-18T01:30:39;100189.73;;;3.72;67.47
61436;BME280;47304;47.456;19.160;2023-11-18T01:33:08;100192.34;;;3.71;67.33
61436;BME280;47304;47.456;19.160;2023-11-18T01:35:36;100195.80;;;3.72;67.51
61436;BME280;47304;47.456;19.160;2023-11-18T01:38:05;100203.77;;;3.71;67.54
61436;BME280;47304;47.456;19.160;2023-11-18T01:40:34;100207.03;;;3.71;67.59
61436;BME280;47304;47.456;19.160;2023-11-18T01:43:03;100201.46;;;3.70;67.54
61436;BME280;47304;47.456;19.160;2023-11-18T01:45:31;100204.40;;;3.70;67.29
61436;BME280;47304;47.456;19.160;2023-11-18T01:47:59;100205.27;;;3.69;67.48
61436;BME280;47304;47.456;19.160;2023-11-18T01:50:28;100206.27;;;3.69;67.47
61436;BME280;47304;47.456;19.160;2023-11-18T01:52:56;100206.95;;;3.67;67.53
61436;BME280;47304;47.456;19.160;2023-11-18T01:55:25;100198.28;;;3.67;67.56
61436;BME280;47304;47.456;19.160;2023-11-18T01:57:53;100196.87;;;3.66;67.56
61436;BME280;47304;47.456;19.160;2023-11-18T02:00:22;100198.44;;;3.66;67.66
61436;BME280;47304;47.456;19.160;2023-11-18T02:02:51;100196.73;;;3.67;67.69
61436;BME280;47304;47.456;19.160;2023-11-18T02:05:19;100198.98;;;3.67;67.61
61436;BME280;47304;47.456;19.160;2023-11-18T02:07:48;100197.56;;;3.66;67.59
61436;BME280;47304;47.456;19.160;2023-11-18T02:10:16;100204.14;;;3.66;67.63
61436;BME280;47304;47.456;19.160;2023-11-18T02:12:49;100202.88;;;3.64;67.51
61436;BME280;47304;47.456;19.160;2023-11-18T02:15:20;100198.70;;;3.62;67.57
61436;BME280;47304;47.456;19.160;2023-11-18T02:17:49;100200.18;;;3.61;67.60
61436;BME280;47304;47.456;19.160;2023-11-18T02:20:21;100202.74;;;3.58;67.63
61436;BME280;47304;47.456;19.160;2023-11-18T02:22:50;100206.91;;;3.58;67.71
61436;BME280;47304;47.456;19.160;2023-11-18T02:25:19;100213.46;;;3.58;67.70
61436;BME280;47304;47.456;19.160;2023-11-18T02:27:50;100213.79;;;3.57;67.56
61436;BME280;47304;47.456;19.160;2023-11-18T02:30:18;100215.17;;;3.57;67.56
61436;BME280;47304;47.456;19.160;2023-11-18T02:32:54;100214.77;;;3.55;67.60
61436;BME280;47304;47.456;19.160;2023-11-18T02:35:28;100212.69;;;3.54;67.70
61436;BME280;47304;47.456;19.160;2023-11-18T02:37:58;100213.88;;;3.53;67.60
61436;BME280;47304;47.456;19.160;2023-11-18T02:40:29;100215.59;;;3.53;67.66
61436;BME280;47304;47.456;19.160;2023-11-18T02:43:00;100221.33;;;3.53;67.61
61436;BME280;47304;47.456;19.160;2023-11-18T02:45:29;100220.81;;;3.54;67.58
61436;BME280;47304;47.456;19.160;2023-11-18T02:47:58;100222.19;;;3.53;67.39
61436;BME280;47304;47.456;19.160;2023-11-18T02:50:27;100218.89;;;3.53;67.46
61436;BME280;47304;47.456;19.160;2023-11-18T02:52:55;100223.26;;;3.54;67.52
61436;BME280;47304;47.456;19.160;2023-11-18T02:55:24;100221.71;;;3.55;67.47
61436;BME280;47304;47.456;19.160;2023-11-18T02:57:52;100220.34;;;3.55;67.50
61436;BME280;47304;47.456;19.160;2023-11-18T03:00:21;100217.38;;;3.55;67.42
61436;BME280;47304;47.456;19.160;2023-11-18T03:02:50;100223.24;;;3.54;67.52
61436;BME280;47304;47.456;19.160;2023-11-18T03:05:19;100233.14;;;3.55;67.42
61436;BME280;47304;47.456;19.160;2023-11-18T03:07:48;100238.52;;;3.56;67.45
61436;BME280;47304;47.456;19.160;2023-11-18T03:10:17;100237.29;;;3.55;67.50
61436;BME280;47304;47.456;19.160;2023-11-18T03:12:45;100243.53;;;3.55;67.67
61436;BME280;47304;47.456;19.160;2023-11-18T03:15:14;100246.27;;;3.53;67.77
61436;BME280;47304;47.456;19.160;2023-11-18T03:17:42;100249.74;;;3.54;67.79
61436;BME280;47304;47.456;19.160;2023-11-18T03:20:12;100250.82;;;3.55;67.93
61436;BME280;47304;47.456;19.160;2023-11-18T03:22:40;100257.07;;;3.55;67.89
61436;BME280;47304;47.456;19.160;2023-11-18T03:25:09;100263.12;;;3.55;67.93
61436;BME280;47304;47.456;19.160;2023-11-18T03:27:38;100265.91;;;3.56;68.09
61436;BME280;47304;47.456;19.160;2023-11-18T03:30:08;100271.14;;;3.57;67.99
61436;BME280;47304;47.456;19.160;2023-11-18T03:32:37;100271.16;;;3.58;68.18
61436;BME280;47304;47.456;19.160;2023-11-18T03:35:08;100267.73;;;3.60;68.09
61436;BME280;47304;47.456;19.160;2023-11-18T03:37:36;100264.65;;;3.61;68.18
61436;BME280;47304;47.456;19.160;2023-11-18T03:40:07;100268.15;;;3.62;68.27
61436;BME280;47304;47.456;19.160;2023-11-18T03:42:36;100273.52;;;3.63;68.35
61436;BME280;47304;47.456;19.160;2023-11-18T03:45:05;100275.10;;;3.63;68.51
61436;BME280;47304;47.456;19.160;2023-11-18T03:47:34;100275.98;;;3.64;68.66
61436;BME280;47304;47.456;19.160;2023-11-18T03:50:03;100283.80;;;3.65;68.79
61436;BME280;47304;47.456;19.160;2023-11-18T03:52:32;100276.23;;;3.66;68.86
61436;BME280;47304;47.456;19.160;2023-11-18T03:55:02;100274.36;;;3.68;68.95
61436;BME280;47304;47.456;19.160;2023-11-18T03:57:31;100274.77;;;3.70;69.00
61436;BME280;47304;47.456;19.160;2023-11-18T03:59:59;100272.14;;;3.69;69.08
61436;BME280;47304;47.456;19.160;2023-11-18T04:02:27;100271.60;;;3.69;69.09
61436;BME280;47304;47.456;19.160;2023-11-18T04:04:56;100276.28;;;3.69;69.17
61436;BME280;47304;47.456;19.160;2023-11-18T04:07:25;100279.58;;;3.69;69.24
61436;BME280;47304;47.456;19.160;2023-11-18T04:09:53;100278.17;;;3.68;69.30
61436;BME280;47304;47.456;19.160;2023-11-18T04:12:22;100284.59;;;3.68;69.42
61436;BME280;47304;47.456;19.160;2023-11-18T04:14:50;100288.23;;;3.68;69.44
61436;BME280;47304;47.456;19.160;2023-11-18T04:17:18;100290.31;;;3.69;69.54
61436;BME280;47304;47.456;19.160;2023-11-18T04:19:47;100288.42;;;3.69;69.56
61436;BME280;47304;47.456;19.160;2023-11-18T04:22:15;100290.19;;;3.70;69.54
61436;BME280;47304;47.456;19.160;2023-11-18T04:24:44;100288.30;;;3.71;69.50
61436;BME280;47304;47.456;19.160;2023-11-18T04:27:12;100289.73;;;3.73;69.54
61436;BME280;47304;47.456;19.160;2023-11-18T04:29:41;100287.14;;;3.74;69.61
61436;BME280;47304;47.456;19.160;2023-11-18T04:32:09;100298.09;;;3.74;69.73
61436;BME280;47304;47.456;19.160;2023-11-18T04:34:38;100299.83;;;3.75;69.62
61436;BME280;47304;47.456;19.160;2023-11-18T04:37:07;100300.86;;;3.74;69.72
61436;BME280;47304;47.456;19.160;2023-11-18T04:39:35;100300.48;;;3.73;69.67
61436;BME280;47304;47.456;19.160;2023-11-18T04:42:04;100300.35;;;3.75;69.81
61436;BME280;47304;47.456;19.160;2023-11-18T04:44:33;100305.91;;;3.75;69.76
61436;BME280;47304;47.456;19.160;2023-11-18T04:47:01;100304.36;;;3.75;69.83
61436;BME280;47304;47.456;19.160;2023-11-18T04:49:30;100305.77;;;3.77;69.89
61436;BME280;47304;47.456;19.160;2023-11-18T04:51:58;100304.92;;;3.77;69.83
61436;BME280;47304;47.456;19.160;2023-11-18T04:54:27;100301.64;;;3.78;69.82
61436;BME280;47304;47.456;19.160;2023-11-18T04:56:56;100302.70;;;3.79;69.76
61436;BME280;47304;47.456;19.160;2023-11-18T04:59:24;100302.05;;;3.80;69.70
61436;BME280;47304;47.456;19.160;2023-11-18T05:01:52;100307.84;;;3.83;69.66
61436;BME280;47304;47.456;19.160;2023-11-18T05:04:21;100310.30;;;3.84;69.59
61436;BME280;47304;47.456;19.160;2023-11-18T05:06:49;100310.84;;;3.85;69.59
61436;BME280;47304;47.456;19.160;2023-11-18T05:09:18;100315.04;;;3.86;69.53
61436;BME280;47304;47.456;19.160;2023-11-18T05:11:46;100310.89;;;3.87;69.41
61436;BME280;47304;47.456;19.160;2023-11-18T05:14:15;100312.84;;;3.89;69.45
61436;BME280;47304;47.456;19.160;2023-11-18T05:16:44;100309.59;;;3.90;69.50
61436;BME280;47304;47.456;19.160;2023-11-18T05:19:12;100309.62;;;3.92;69.35
61436;BME280;47304;47.456;19.160;2023-11-18T05:21:40;100311.37;;;3.92;69.24
61436;BME280;47304;47.456;19.160;2023-11-18T05:24:10;100307.73;;;3.93;69.17
61436;BME280;47304;47.456;19.160;2023-11-18T05:26:38;100312.64;;;3.95;69.08
61436;BME280;47304;47.456;19.160;2023-11-18T05:29:06;100312.31;;;3.95;68.87
61436;BME280;47304;47.456;19.160;2023-11-18T05:31:35;100309.41;;;3.97;68.84
61436;BME280;47304;47.456;19.160;2023-11-18T05:34:03;100308.20;;;3.98;68.89
61436;BME280;47304;47.456;19.160;2023-11-18T05:36:31;100304.11;;;4.00;68.86
61436;BME280;47304;47.456;19.160;2023-11-18T05:39:00;100304.65;;;4.01;68.72
61436;BME280;47304;47.456;19.160;2023-11-18T05:41:28;100308.65;;;4.01;68.65
61436;BME280;47304;47.456;19.160;2023-11-18T05:43:57;100306.59;;;4.02;68.80
61436;BME280;47304;47.456;19.160;2023-11-18T05:46:25;100314.25;;;4.03;68.70
61436;BME280;47304;47.456;19.160;2023-11-18T05:48:54;100318.48;;;4.06;68.65
61436;BME280;47304;47.456;19.160;2023-11-18T05:51:23;100324.95;;;4.08;68.50
61436;BME280;47304;47.456;19.160;2023-11-18T05:53:52;100331.75;;;4.10;68.50
61436;BME280;47304;47.456;19.160;2023-11-18T05:56:22;100333.31;;;4.10;68.47
61436;BME280;47304;47.456;19.160;2023-11-18T05:58:50;100332.77;;;4.09;68.37
61436;BME280;47304;47.456;19.160;2023-11-18T06:01:18;100338.00;;;4.10;68.45
61436;BME280;47304;47.456;19.160;2023-11-18T06:03:47;100342.52;;;4.11;68.45
61436;BME280;47304;47.456;19.160;2023-11-18T06:06:16;100352.23;;;4.11;68.42
61436;BME280;47304;47.456;19.160;2023-11-18T06:08:45;100350.00;;;4.12;68.51
61436;BME280;47304;47.456;19.160;2023-11-18T06:11:13;100347.95;;;4.13;68.42
61436;BME280;47304;47.456;19.160;2023-11-18T06:13:43;100346.06;;;4.14;68.44
61436;BME280;47304;47.456;19.160;2023-11-18T06:16:14;100352.70;;;4.15;68.20
61436;BME280;47304;47.456;19.160;2023-11-18T06:18:44;100357.73;;;4.16;68.21
61436;BME280;47304;47.456;19.160;2023-11-18T06:21:16;100363.46;;;4.16;68.22
61436;BME280;47304;47.456;19.160;2023-11-18T06:23:46;100361.75;;;4.17;68.04
61436;BME280;47304;47.456;19.160;2023-11-18T06:26:14;100360.71;;;4.17;68.12
61436;BME280;47304;47.456;19.160;2023-11-18T06:28:44;100358.46;;;4.17;68.08
61436;BME280;47304;47.456;19.160;2023-11-18T06:31:13;100356.91;;;4.17;68.08
61436;BME280;47304;47.456;19.160;2023-11-18T06:33:42;100352.27;;;4.19;68.12
61436;BME280;47304;47.456;19.160;2023-11-18T06:36:16;100353.88;;;4.20;68.01
61436;BME280;47304;47.456;19.160;2023-11-18T06:38:45;100351.69;;;4.24;67.86
61436;BME280;47304;47.456;19.160;2023-11-18T06:41:14;100353.45;;;4.25;67.84
61436;BME280;47304;47.456;19.160;2023-11-18T06:43:43;100351.63;;;4.28;67.72
61436;BME280;47304;47.456;19.160;2023-11-18T06:46:12;100360.89;;;4.31;67.65
61436;BME280;47304;47.456;19.160;2023-11-18T06:48:40;100368.63;;;4.36;67.39
61436;BME280;47304;47.456;19.160;2023-11-18T06:51:09;100368.36;;;4.39;67.25
61436;BME280;47304;47.456;19.160;2023-11-18T06:53:37;100376.98;;;4.43;67.24
61436;BME280;47304;47.456;19.160;2023-11-18T06:56:07;100377.87;;;4.45;67.02
61436;BME280;47304;47.456;19.160;2023-11-18T06:58:38;100384.73;;;4.48;66.91
61436;BME280;47304;47.456;19.160;2023-11-18T07:01:07;100390.21;;;4.52;66.75
61436;BME280;47304;47.456;19.160;2023-11-18T07:03:35;100394.23;;;4.54;66.62
61436;BME280;47304;47.456;19.160;2023-11-18T07:06:04;100401.10;;;4.58;66.63
61436;BME280;47304;47.456;19.160;2023-11-18T07:08:32;100409.89;;;4.63;66.48
61436;BME280;47304;47.456;19.160;2023-11-18T07:11:01;100414.17;;;4.67;66.40
61436;BME280;47304;47.456;19.160;2023-11-18T07:13:29;100414.09;;;4.72;66.24
61436;BME280;47304;47.456;19.160;2023-11-18T07:15:58;100420.21;;;4.74;65.81
61436;BME280;47304;47.456;19.160;2023-11-18T07:18:26;100416.98;;;4.76;65.65
61436;BME280;47304;47.456;19.160;2023-11-18T07:20:54;100422.77;;;4.79;65.62
61436;BME280;47304;47.456;19.160;2023-11-18T07:23:23;100421.11;;;4.82;65.49
61436;BME280;47304;47.456;19.160;2023-11-18T07:25:52;100427.64;;;4.87;65.28
61436;BME280;47304;47.456;19.160;2023-11-18T07:28:21;100423.54;;;4.89;65.23
61436;BME280;47304;47.456;19.160;2023-11-18T07:30:49;100426.59;;;4.94;65.24
61436;BME280;47304;47.456;19.160;2023-11-18T07:33:18;100428.23;;;4.97;65.04
61436;BME280;47304;47.456;19.160;2023-11-18T07:35:47;100435.46;;;5.02;64.90
61436;BME280;47304;47.456;19.160;2023-11-18T07:38:16;100439.01;;;5.05;64.66
61436;BME280;47304;47.456;19.160;2023-11-18T07:40:45;100441.14;;;5.07;64.48
61436;BME280;47304;47.456;19.160;2023-11-18T07:43:14;100445.19;;;5.10;64.28
61436;BME280;47304;47.456;19.160;2023-11-18T07:45:42;100448.54;;;5.12;64.31
61436;BME280;47304;47.456;19.160;2023-11-18T07:48:11;100447.55;;;5.14;64.24
61436;BME280;47304;47.456;19.160;2023-11-18T07:50:40;100449.41;;;5.20;64.28
61436;BME280;47304;47.456;19.160;2023-11-18T07:53:09;100447.45;;;5.26;63.92
61436;BME280;47304;47.456;19.160;2023-11-18T07:55:37;100436.45;;;5.30;63.89
61436;BME280;47304;47.456;19.160;2023-11-18T07:58:05;100438.86;;;5.37;63.91
61436;BME280;47304;47.456;19.160;2023-11-18T08:00:34;100435.19;;;5.44;63.46
61436;BME280;47304;47.456;19.160;2023-11-18T08:03:02;100429.92;;;5.50;63.17
61436;BME280;47304;47.456;19.160;2023-11-18T08:05:31;100429.02;;;5.57;63.11
61436;BME280;47304;47.456;19.160;2023-11-18T08:07:59;100426.49;;;5.61;62.58
61436;BME280;47304;47.456;19.160;2023-11-18T08:10:27;100426.44;;;5.66;62.59
61436;BME280;47304;47.456;19.160;2023-11-18T08:12:56;100423.60;;;5.73;62.36
61436;BME280;47304;47.456;19.160;2023-11-18T08:15:24;100425.84;;;5.80;62.35
61436;BME280;47304;47.456;19.160;2023-11-18T08:17:52;100427.21;;;5.88;61.95
61436;BME280;47304;47.456;19.160;2023-11-18T08:20:21;100431.31;;;5.93;61.41
61436;BME280;47304;47.456;19.160;2023-11-18T08:22:49;100437.83;;;5.97;61.48
61436;BME280;47304;47.456;19.160;2023-11-18T08:25:17;100436.61;;;6.05;61.38
61436;BME280;47304;47.456;19.160;2023-11-18T08:27:46;100438.94;;;6.18;61.13
61436;BME280;47304;47.456;19.160;2023-11-18T08:30:16;100436.09;;;6.34;60.78
61436;BME280;47304;47.456;19.160;2023-11-18T08:32:44;100433.96;;;6.72;60.62
61436;BME280;47304;47.456;19.160;2023-11-18T08:35:13;100434.61;;;7.28;59.67
61436;BME280;47304;47.456;19.160;2023-11-18T08:37:42;100438.28;;;8.14;58.07
61436;BME280;47304;47.456;19.160;2023-11-18T08:40:12;100439.73;;;9.58;55.87
61436;BME280;47304;47.456;19.160;2023-11-18T08:42:40;100440.69;;;11.23;52.63
61436;BME280;47304;47.456;19.160;2023-11-18T08:45:10;100437.67;;;12.54;49.98
61436;BME280;47304;47.456;19.160;2023-11-18T08:47:38;100446.75;;;13.23;48.32
61436;BME280;47304;47.456;19.160;2023-11-18T08:50:08;100451.14;;;13.06;48.42
61436;BME280;47304;47.456;19.160;2023-11-18T08:52:37;100455.48;;;12.69;48.25
61436;BME280;47304;47.456;19.160;2023-11-18T08:55:06;100465.06;;;11.93;48.09
61436;BME280;47304;47.456;19.160;2023-11-18T08:57:36;100467.90;;;11.26;48.54
61436;BME280;47304;47.456;19.160;2023-11-18T09:00:06;100466.70;;;10.78;48.71
61436;BME280;47304;47.456;19.160;2023-11-18T09:02:34;100462.31;;;10.89;48.83
61436;BME280;47304;47.456;19.160;2023-11-18T09:05:03;100469.31;;;12.20;47.63
61436;BME280;47304;47.456;19.160;2023-11-18T09:07:31;100465.36;;;13.27;45.19
61436;BME280;47304;47.456;19.160;2023-11-18T09:10:01;100468.51;;;13.11;45.33
61436;BME280;47304;47.456;19.160;2023-11-18T09:12:29;100467.95;;;12.94;45.20
61436;BME280;47304;47.456;19.160;2023-11-18T09:14:57;100465.48;;;14.19;43.76
61436;BME280;47304;47.456;19.160;2023-11-18T09:17:26;100459.40;;;15.99;40.63
61436;BME280;47304;47.456;19.160;2023-11-18T09:19:54;100456.69;;;17.49;39.15
61436;BME280;47304;47.456;19.160;2023-11-18T09:22:23;100445.00;;;19.00;37.66
61436;BME280;47304;47.456;19.160;2023-11-18T09:24:52;100445.23;;;20.18;35.30
61436;BME280;47304;47.456;19.160;2023-11-18T09:27:21;100450.56;;;20.31;33.28
61436;BME280;47304;47.456;19.160;2023-11-18T09:29:49;100449.40;;;19.78;33.64
61436;BME280;47304;47.456;19.160;2023-11-18T09:32:18;100454.27;;;19.76;34.33
61436;BME280;47304;47.456;19.160;2023-11-18T09:34:46;100442.23;;;19.25;34.61
61436;BME280;47304;47.456;19.160;2023-11-18T09:37:15;100451.84;;;17.96;35.37
61436;BME280;47304;47.456;19.160;2023-11-18T09:39:43;100467.55;;;16.85;36.58
61436;BME280;47304;47.456;19.160;2023-11-18T09:42:14;100471.03;;;15.94;37.02
61436;BME280;47304;47.456;19.160;2023-11-18T09:44:42;100470.33;;;14.86;37.74
61436;BME280;47304;47.456;19.160;2023-11-18T09:47:12;100477.16;;;13.92;39.37
61436;BME280;47304;47.456;19.160;2023-11-18T09:49:45;100479.25;;;13.29;40.21
61436;BME280;47304;47.456;19.160;2023-11-18T09:52:18;100482.59;;;12.88;41.27
61436;BME280;47304;47.456;19.160;2023-11-18T09:54:54;100483.06;;;12.46;41.97
61436;BME280;47304;47.456;19.160;2023-11-18T09:57:32;100483.81;;;12.07;42.78
61436;BME280;47304;47.456;19.160;2023-11-18T10:00:03;100477.32;;;12.07;43.05
61436;BME280;47304;47.456;19.160;2023-11-18T10:02:30;100482.75;;;12.40;42.65
61436;BME280;47304;47.456;19.160;2023-11-18T10:05:00;100480.14;;;12.00;42.88
61436;BME280;47304;47.456;19.160;2023-11-18T10:07:30;100482.51;;;11.75;43.44
61436;BME280;47304;47.456;19.160;2023-11-18T10:09:59;100483.52;;;11.91;43.34
61436;BME280;47304;47.456;19.160;2023-11-18T10:12:27;100487.19;;;12.33;42.97
61436;BME280;47304;47.456;19.160;2023-11-18T10:14:56;100482.89;;;12.47;42.68
61436;BME280;47304;47.456;19.160;2023-11-18T10:17:24;100486.27;;;13.09;41.77
61436;BME280;47304;47.456;19.160;2023-11-18T10:19:54;100484.23;;;13.43;41.24
61436;BME280;47304;47.456;19.160;2023-11-18T10:22:24;100495.06;;;13.30;41.46
61436;BME280;47304;47.456;19.160;2023-11-18T10:24:53;100486.43;;;13.81;40.69
61436;BME280;47304;47.456;19.160;2023-11-18T10:27:22;100486.16;;;14.69;39.67
61436;BME280;47304;47.456;19.160;2023-11-18T10:29:51;100489.01;;;14.28;40.14
61436;BME280;47304;47.456;19.160;2023-11-18T10:32:23;100495.26;;;13.28;40.82
61436;BME280;47304;47.456;19.160;2023-11-18T10:34:52;100497.77;;;12.55;41.99
61436;BME280;47304;47.456;19.160;2023-11-18T10:37:22;100500.66;;;12.08;42.46
61436;BME280;47304;47.456;19.160;2023-11-18T10:39:51;100496.03;;;11.71;43.35
61436;BME280;47304;47.456;19.160;2023-11-18T10:42:20;100494.01;;;11.39;44.19
61436;BME280;47304;47.456;19.160;2023-11-18T10:44:57;100495.41;;;11.32;44.25
61436;BME280;47304;47.456;19.160;2023-11-18T10:47:27;100494.90;;;11.18;44.16
61436;BME280;47304;47.456;19.160;2023-11-18T10:49:56;100497.16;;;11.40;43.92
61436;BME280;47304;47.456;19.160;2023-11-18T10:52:25;100486.16;;;11.84;43.27
61436;BME280;47304;47.456;19.160;2023-11-18T10:54:54;100488.39;;;12.64;42.26
61436;BME280;47304;47.456;19.160;2023-11-18T10:57:23;100483.33;;;13.06;41.52
61436;BME280;47304;47.456;19.160;2023-11-18T11:02:20;100488.02;;;12.67;42.01
61436;BME280;47304;47.456;19.160;2023-11-18T11:04:49;100493.05;;;12.52;42.23
61436;BME280;47304;47.456;19.160;2023-11-18T11:07:18;100497.42;;;12.25;42.21
61436;BME280;47304;47.456;19.160;2023-11-18T11:09:47;100490.52;;;12.02;42.74
61436;BME280;47304;47.456;19.160;2023-11-18T11:12:17;100488.75;;;12.06;42.64
61436;BME280;47304;47.456;19.160;2023-11-18T11:14:53;100485.66;;;12.23;42.10
61436;BME280;47304;47.456;19.160;2023-11-18T11:17:27;100485.67;;;12.22;42.42
61436;BME280;47304;47.456;19.160;2023-11-18T11:19:58;100491.36;;;12.07;42.78
61436;BME280;47304;47.456;19.160;2023-11-18T11:22:35;100497.19;;;12.02;42.63
61436;BME280;47304;47.456;19.160;2023-11-18T11:25:14;100505.09;;;11.91;42.46
61436;BME280;47304;47.456;19.160;2023-11-18T11:27:50;100514.95;;;11.83;42.97
61436;BME280;47304;47.456;19.160;2023-11-18T11:30:27;100520.71;;;11.90;43.39
61436;BME280;47304;47.456;19.160;2023-11-18T11:33:03;100528.20;;;12.18;42.92
61436;BME280;47304;47.456;19.160;2023-11-18T11:35:36;100525.66;;;12.64;41.78
61436;BME280;47304;47.456;19.160;2023-11-18T11:38:05;100525.80;;;13.15;41.54
61436;BME280;47304;47.456;19.160;2023-11-18T11:40:34;100532.77;;;13.64;40.70
61436;BME280;47304;47.456;19.160;2023-11-18T11:43:03;100539.30;;;14.09;39.87
61436;BME280;47304;47.456;19.160;2023-11-18T11:45:34;100532.39;;;14.40;39.27
61436;BME280;47304;47.456;19.160;2023-11-18T11:48:04;100536.39;;;14.58;38.44
61436;BME280;47304;47.456;19.160;2023-11-18T11:50:36;100531.80;;;14.94;38.44
61436;BME280;47304;47.456;19.160;2023-11-18T11:53:09;100533.02;;;15.28;37.59
61436;BME280;47304;47.456;19.160;2023-11-18T11:55:44;100532.11;;;15.29;36.61
61436;BME280;47304;47.456;19.160;2023-11-18T11:58:28;100538.20;;;14.78;37.02
61436;BME280;47304;47.456;19.160;2023-11-18T12:00:56;100534.68;;;14.52;37.06
61436;BME280;47304;47.456;19.160;2023-11-18T12:03:26;100532.11;;;14.34;37.48
61436;BME280;47304;47.456;19.160;2023-11-18T12:05:57;100537.87;;;14.26;38.25
61436;BME280;47304;47.456;19.160;2023-11-18T12:08:26;100538.27;;;14.22;38.14
61436;BME280;47304;47.456;19.160;2023-11-18T12:10:55;100545.44;;;13.96;38.08
61436;BME280;47304;47.456;19.160;2023-11-18T12:13:24;100544.49;;;13.69;38.66
61436;BME280;47304;47.456;19.160;2023-11-18T12:15:54;100553.48;;;13.30;38.75
61436;BME280;47304;47.456;19.160;2023-11-18T12:18:23;100554.50;;;12.88;39.26
61436;BME280;47304;47.456;19.160;2023-11-18T12:20:51;100555.08;;;12.49;40.08
61436;BME280;47304;47.456;19.160;2023-11-18T12:23:20;100557.36;;;12.13;40.78
61436;BME280;47304;47.456;19.160;2023-11-18T12:25:48;100554.61;;;11.85;41.13
61436;BME280;47304;47.456;19.160;2023-11-18T12:28:18;100549.41;;;11.58;41.74
61436;BME280;47304;47.456;19.160;2023-11-18T12:30:47;100557.16;;;11.32;42.14
61436;BME280;47304;47.456;19.160;2023-11-18T12:33:16;100557.16;;;11.05;42.40
61436;BME280;47304;47.456;19.160;2023-11-18T12:39:19;100558.47;;;10.53;43.48
61436;BME280;47304;47.456;19.160;2023-11-18T12:42:03;100552.39;;;10.25;44.33
61436;BME280;47304;47.456;19.160;2023-11-18T12:44:33;100565.27;;;10.08;44.78
61436;BME280;47304;47.456;19.160;2023-11-18T12:47:04;100566.41;;;9.92;44.86
61436;BME280;47304;47.456;19.160;2023-11-18T12:49:38;100569.84;;;9.79;45.17
61436;BME280;47304;47.456;19.160;2023-11-18T12:52:07;100569.08;;;9.67;45.13
61436;BME280;47304;47.456;19.160;2023-11-18T12:54:37;100565.48;;;9.55;45.55
61436;BME280;47304;47.456;19.160;2023-11-18T12:57:06;100569.23;;;9.40;45.67
61436;BME280;47304;47.456;19.160;2023-11-18T12:59:34;100578.57;;;9.26;45.99
61436;BME280;47304;47.456;19.160;2023-11-18T13:02:02;100577.93;;;9.13;45.96
61436;BME280;47304;47.456;19.160;2023-11-18T13:04:33;100588.70;;;9.06;46.12